Daingerfield, Texas
Current Conditions -  °F | °C
As of 1:15 PM on Thursday 30 Oct 2014 (Local Time) from KOSA Reporting Station
Clear Clear  
Wind Chill: 72°   Ceiling: Unl
Heat Index: 72°   Visibility: 10mi
Dew Point: 41°   Wind: 6mph
Humidity: 32%   Direction: 160°SSE
Pressure: 30.15"   Gusts: NA
Location:  33.03°N, 94.72°W
Report Text: KOSA 301815Z AUTO 16005KT 10SM CLR 22/05 A3015 RMK AO1 T02220048
Loading
Personal Weather Stations






























Interactive Weather Map
Tropical Storm Tracking
New forecast layout! Learn more

10-Day Weather Forecast

Advertisements
Track Severe Weather on mobile